»·PEaware :: AAL1025 KTUS-KDFW

AAL1025 :: KTUS-KDFW

FLIGHT INFORMATION

Flight Status: Arrived
Operator:
American Airlines
More flights by this operator :: More flights under this callsign
Pilot: Leo L. (42155)
Aircraft: AIRBUS A321
(A321)
More flights by this aircraft type
Origin: KTUS Tucson Intl
United States
Destination: KDFW Dallas-Ft Worth Intl
United States
More flights between these airports :: More routes between these airports
Route: BURRO4 NOCHI EWM J4 INK GEEKY BOOVE6
File this flight plan on PilotEdge
Remarks: RMK / SIMBRIEF
Altitude:
(Current/Filed)
35,000ft
Speed:
(Current/Filed)
457kts
Departed: 05-Oct-23 10:45 AM
Arrived: 05-Oct-23 12:29 PM
Distance/Time
Traveled:
704nm/1:44
Distance/Time
To Go:
Arrived

Flight Plot

Page will automatically refresh every two minutes.

Flight plan parsing failed; only flown route is shown


Map Options




Map Legend


Flown Route
Filed Route
Departure Airport
Arrival Airport
Navaid (VOR, NDB)
Fix

Horizontal Profiles

Position Reports

Time Latitude Longitude Heading Altitude Ground
Speed
05-Oct-23 10:28 32.121801 -110.939899 152 2594ft 0kts
05-Oct-23 10:29 32.121801 -110.939899 152 2594ft 0kts
05-Oct-23 10:30 32.121801 -110.939899 152 2594ft 0kts
05-Oct-23 10:31 32.121801 -110.939899 152 2594ft 0kts
05-Oct-23 10:32 32.121801 -110.939899 152 2594ft 0kts
05-Oct-23 10:33 32.121801 -110.939899 152 2594ft 0kts
05-Oct-23 10:34 32.121801 -110.939899 152 2594ft 0kts
05-Oct-23 10:35 32.121801 -110.939899 152 2594ft 0kts
05-Oct-23 10:36 32.121801 -110.939899 152 2594ft 0kts
05-Oct-23 10:37 32.121876 -110.939944 152 2594ft 2kts
05-Oct-23 10:38 32.122305 -110.939896 273 2593ft 1kts
05-Oct-23 10:39 32.122299 -110.939821 272 2593ft 0kts
05-Oct-23 10:40 32.122276 -110.940167 251 2592ft 4kts
05-Oct-23 10:41 32.120367 -110.940927 202 2598ft 15kts
05-Oct-23 10:42 32.123349 -110.945338 314 2584ft 18kts
05-Oct-23 10:43 32.123225 -110.947616 164 2579ft 4kts
05-Oct-23 10:44 32.109322 -110.931470 134 2628ft 176kts
05-Oct-23 10:45 32.072830 -110.888635 134 4691ft 190kts
05-Oct-23 10:46 32.031272 -110.839763 135 5581ft 233kts
05-Oct-23 10:47 31.978548 -110.779923 135 6819ft 283kts
05-Oct-23 10:48 31.934159 -110.703809 101 8845ft 291kts
05-Oct-23 10:49 31.917560 -110.610354 102 11010ft 301kts
05-Oct-23 10:50 31.898376 -110.505333 98 12143ft 351kts
05-Oct-23 10:51 31.911795 -110.391005 77 14316ft 363kts
05-Oct-23 10:52 31.934873 -110.273634 77 16355ft 374kts
05-Oct-23 10:53 31.958193 -110.152860 77 18262ft 385kts
05-Oct-23 10:54 31.981946 -110.029004 78 20217ft 391kts
05-Oct-23 10:55 32.005833 -109.903649 78 22081ft 395kts
05-Oct-23 10:56 32.029061 -109.776431 82 23744ft 400kts
05-Oct-23 10:57 32.032262 -109.644855 92 25221ft 407kts
05-Oct-23 10:58 32.030566 -109.509767 92 26526ft 418kts
05-Oct-23 10:59 32.028838 -109.371606 92 27729ft 428kts
05-Oct-23 11:00 32.026950 -109.229481 92 28846ft 438kts
05-Oct-23 11:01 32.024849 -109.084815 92 29850ft 448kts
05-Oct-23 11:02 32.022532 -108.936776 92 30740ft 457kts
05-Oct-23 11:03 32.020028 -108.786847 92 31833ft 459kts
05-Oct-23 11:04 32.017305 -108.636367 92 32834ft 462kts
05-Oct-23 11:05 32.014396 -108.485163 92 33745ft 465kts
05-Oct-23 11:06 32.011294 -108.332060 93 34508ft 470kts
05-Oct-23 11:07 32.007978 -108.177149 94 35124ft 477kts
05-Oct-23 11:08 32.004407 -108.020701 94 35728ft 483kts
05-Oct-23 11:09 32.000591 -107.861680 94 35898ft 486kts
05-Oct-23 11:10 31.996535 -107.702588 94 35905ft 487kts
05-Oct-23 11:11 31.992271 -107.542866 94 35912ft 492kts
05-Oct-23 11:12 31.987844 -107.381867 93 35921ft 494kts
05-Oct-23 11:13 31.983159 -107.220072 94 35946ft 496kts
05-Oct-23 11:14 31.978226 -107.057633 94 35965ft 499kts
05-Oct-23 11:15 31.973106 -106.894232 94 35976ft 500kts
05-Oct-23 11:16 31.967680 -106.731036 95 35976ft 500kts
05-Oct-23 11:17 31.962140 -106.567457 94 35974ft 498kts
05-Oct-23 11:18 31.956425 -106.404813 94 35979ft 499kts
05-Oct-23 11:19 31.950809 -106.242252 94 35976ft 498kts
05-Oct-23 11:20 31.948411 -106.079316 93 35971ft 499kts
05-Oct-23 11:21 31.945712 -105.915531 93 35970ft 499kts
05-Oct-23 11:22 31.942821 -105.752768 93 35973ft 498kts
05-Oct-23 11:23 31.939593 -105.589742 93 35983ft 499kts
05-Oct-23 11:24 31.936272 -105.426560 94 36009ft 500kts
05-Oct-23 11:25 31.932690 -105.262554 94 36034ft 502kts
05-Oct-23 11:26 31.929035 -105.098161 93 36062ft 503kts
05-Oct-23 11:27 31.925388 -104.933218 94 36081ft 505kts
05-Oct-23 11:28 31.921302 -104.768509 94 36093ft 506kts
05-Oct-23 11:29 31.917066 -104.602562 94 36091ft 507kts
05-Oct-23 11:30 31.912653 -104.436963 94 36077ft 508kts
05-Oct-23 11:31 31.908008 -104.270594 94 36056ft 509kts
05-Oct-23 11:32 31.903167 -104.104651 94 36043ft 505kts
05-Oct-23 11:33 31.898139 -103.939620 94 36034ft 505kts
05-Oct-23 11:34 31.892876 -103.774220 94 36029ft 509kts
05-Oct-23 11:35 31.887486 -103.608012 95 36019ft 506kts
05-Oct-23 11:36 31.881800 -103.442687 95 36012ft 506kts
05-Oct-23 11:37 31.876508 -103.277784 93 36007ft 507kts
05-Oct-23 11:38 31.891383 -103.112040 82 36012ft 513kts
05-Oct-23 11:39 31.913944 -102.946455 82 36014ft 514kts
05-Oct-23 11:40 31.935781 -102.780390 82 36020ft 514kts
05-Oct-23 11:41 31.957371 -102.613974 82 36019ft 516kts
05-Oct-23 11:42 31.978771 -102.446988 83 36012ft 518kts
05-Oct-23 11:43 32.000006 -102.280040 83 36006ft 515kts
05-Oct-23 11:44 32.020833 -102.113780 84 35989ft 514kts
05-Oct-23 11:45 32.041614 -101.947204 84 35993ft 514kts
05-Oct-23 11:46 32.062038 -101.780913 84 35986ft 513kts
05-Oct-23 11:47 32.082199 -101.613992 83 35974ft 516kts
05-Oct-23 11:48 32.102420 -101.446677 82 35961ft 515kts
05-Oct-23 11:49 32.122912 -101.279307 83 35952ft 515kts
05-Oct-23 11:50 32.142555 -101.112332 83 35950ft 515kts
05-Oct-23 11:51 32.161948 -100.944998 83 35949ft 515kts
05-Oct-23 11:52 32.181062 -100.777635 84 35957ft 517kts
05-Oct-23 11:53 32.199959 -100.609826 83 35978ft 519kts
05-Oct-23 11:54 32.219073 -100.440461 84 35994ft 522kts
05-Oct-23 11:55 32.237796 -100.270151 84 35998ft 524kts
05-Oct-23 11:56 32.256443 -100.100308 85 35991ft 518kts
05-Oct-23 11:57 32.274377 -99.932125 85 35979ft 522kts
05-Oct-23 11:58 32.286419 -99.760676 88 35966ft 524kts
05-Oct-23 11:59 32.295235 -99.589190 88 35924ft 525kts
05-Oct-23 12:00 32.304132 -99.416979 88 33353ft 525kts
05-Oct-23 12:01 32.312688 -99.245709 88 30602ft 523kts
05-Oct-23 12:02 32.320736 -99.078345 87 28638ft 497kts
05-Oct-23 12:04 32.328263 -98.918973 86 26986ft 477kts
05-Oct-23 12:05 32.335521 -98.765320 85 25255ft 460kts
05-Oct-23 12:06 32.342217 -98.617941 84 23516ft 444kts
05-Oct-23 12:07 32.348520 -98.475162 84 21720ft 424kts
05-Oct-23 12:08 32.354285 -98.339735 84 19989ft 404kts
05-Oct-23 12:09 32.359686 -98.210344 83 18346ft 386kts
05-Oct-23 12:10 32.364768 -98.086694 83 16676ft 370kts
05-Oct-23 12:11 32.369623 -97.965710 83 14689ft 365kts
05-Oct-23 12:12 32.374068 -97.851121 84 13392ft 342kts
05-Oct-23 12:13 32.378367 -97.739773 84 11651ft 338kts
05-Oct-23 12:14 32.383692 -97.632759 70 10598ft 308kts
05-Oct-23 12:15 32.437962 -97.561715 41 9254ft 289kts
05-Oct-23 12:16 32.480762 -97.485803 81 8417ft 287kts
05-Oct-23 12:17 32.488902 -97.392573 81 7398ft 282kts
05-Oct-23 12:18 32.497350 -97.301555 81 6268ft 269kts
05-Oct-23 12:19 32.508031 -97.218248 77 5379ft 249kts
05-Oct-23 12:20 32.519576 -97.138197 77 4224ft 244kts
05-Oct-23 12:21 32.562750 -97.081678 33 4187ft 239kts
05-Oct-23 12:22 32.620364 -97.056081 1 4182ft 215kts
05-Oct-23 12:23 32.680571 -97.055725 359 4154ft 212kts
05-Oct-23 12:24 32.735524 -97.055480 0 3375ft 192kts
05-Oct-23 12:25 32.787494 -97.055242 0 2371ft 171kts
05-Oct-23 12:25 32.822569 -97.055084 1 1678ft 141kts
05-Oct-23 12:27 32.868172 -97.054839 1 819ft 139kts
05-Oct-23 12:28 32.896748 -97.054713 1 607ft 48kts
05-Oct-23 12:29 32.901141 -97.050386 89 614ft 21kts
05-Oct-23 12:30 32.901641 -97.044372 49 601ft 10kts

Navigation Log

Ident Type
Flight plan parsing failed, navigation log unavailable